createdAt,value
2022-09-04T00:01:18.050Z,2.35
2022-09-04T00:03:51.408Z,2.00
2022-09-04T00:06:24.908Z,2.22
2022-09-04T00:09:08.815Z,2.40
2022-09-04T00:11:47.150Z,2.95
2022-09-04T00:14:18.709Z,3.63
2022-09-04T00:16:52.320Z,2.42
2022-09-04T00:19:31.158Z,2.65
2022-09-04T00:22:01.922Z,2.25
2022-09-04T00:24:33.315Z,2.10
2022-09-04T00:27:06.458Z,2.70
2022-09-04T00:29:44.809Z,2.53
2022-09-04T00:32:24.851Z,2.40
2022-09-04T00:35:04.463Z,2.45
2022-09-04T00:37:39.263Z,2.97
2022-09-04T00:40:11.008Z,3.10
2022-09-04T00:42:55.728Z,2.58
2022-09-04T00:45:36.148Z,2.92
2022-09-04T00:48:23.232Z,2.83
2022-09-04T00:51:17.870Z,2.67
2022-09-04T00:54:17.196Z,3.35
2022-09-04T00:57:06.600Z,2.80
2022-09-04T00:59:54.394Z,2.92
2022-09-04T01:02:32.587Z,2.63
2022-09-04T01:05:09.954Z,2.70
2022-09-04T01:07:56.831Z,2.60
2022-09-04T01:10:36.551Z,2.50
2022-09-04T01:13:10.279Z,3.25
2022-09-04T01:15:45.045Z,3.10
2022-09-04T01:18:19.110Z,2.95
2022-09-04T01:21:11.875Z,2.95
2022-09-04T01:24:09.317Z,3.28
2022-09-04T01:26:47.788Z,3.17
2022-09-04T01:29:24.438Z,2.55
2022-09-04T01:31:59.853Z,2.65
2022-09-04T01:34:39.334Z,3.05
2022-09-04T01:37:21.046Z,2.33
2022-09-04T01:40:00.548Z,2.83
2022-09-04T01:42:41.815Z,3.00
2022-09-04T01:45:11.825Z,3.70
2022-09-04T01:47:47.181Z,2.92
2022-09-04T01:50:21.987Z,3.03
2022-09-04T01:52:58.991Z,2.85
2022-09-04T01:55:35.514Z,3.25
2022-09-04T01:58:16.223Z,3.17
2022-09-04T02:00:53.769Z,3.17
2022-09-04T02:03:32.062Z,2.80
2022-09-04T02:06:08.516Z,2.88
2022-09-04T02:08:59.873Z,3.00
2022-09-04T02:11:30.560Z,3.20
2022-09-04T02:14:17.753Z,2.70
2022-09-04T02:16:58.970Z,2.63
2022-09-04T02:19:37.543Z,2.88
2022-09-04T02:22:15.189Z,3.60
2022-09-04T02:24:53.989Z,3.38
2022-09-04T02:27:27.517Z,3.33
2022-09-04T02:30:03.520Z,3.75
2022-09-04T02:32:39.035Z,3.30
2022-09-04T02:35:15.667Z,3.30
2022-09-04T02:38:00.385Z,3.42
2022-09-04T02:40:33.620Z,3.65
2022-09-04T02:43:19.276Z,3.35
2022-09-04T02:45:57.088Z,3.80
2022-09-04T02:48:35.193Z,3.47
2022-09-04T02:51:20.807Z,3.40
2022-09-04T02:53:59.006Z,3.45
2022-09-04T02:56:39.385Z,3.40
2022-09-04T02:59:32.959Z,3.88
2022-09-04T03:02:04.583Z,4.00
2022-09-04T03:04:39.206Z,3.67
2022-09-04T03:07:13.185Z,4.68
2022-09-04T03:09:47.091Z,4.07
2022-09-04T03:12:30.913Z,3.38
2022-09-04T03:15:04.930Z,4.18
2022-09-04T03:17:44.572Z,3.35
2022-09-04T03:20:18.536Z,3.75
2022-09-04T03:22:52.530Z,3.17
2022-09-04T03:26:10.751Z,3.42
2022-09-04T03:28:47.533Z,2.78
2022-09-04T03:31:27.877Z,3.55
2022-09-04T03:34:13.725Z,3.28
2022-09-04T03:36:48.318Z,3.72
2022-09-04T03:39:25.070Z,3.13
2022-09-04T03:42:07.988Z,3.60
2022-09-04T03:44:47.401Z,3.17
2022-09-04T03:47:29.731Z,3.40
2022-09-04T03:50:11.603Z,3.35
2022-09-04T03:52:55.824Z,3.58
2022-09-04T03:55:41.098Z,3.47
2022-09-04T03:58:17.708Z,3.20
2022-09-04T04:00:57.259Z,3.47
2022-09-04T04:03:43.931Z,3.30
2022-09-04T04:06:23.288Z,4.00
2022-09-04T04:09:27.863Z,3.85
2022-09-04T04:12:13.168Z,3.85
2022-09-04T04:15:03.306Z,3.45
2022-09-04T04:17:49.753Z,3.63
2022-09-04T04:20:29.379Z,3.30
2022-09-04T04:23:30.602Z,3.72
2022-09-04T04:26:08.694Z,3.40
2022-09-04T04:28:59.794Z,3.50
2022-09-04T04:31:45.799Z,3.42
2022-09-04T04:34:25.255Z,3.78
2022-09-04T04:36:59.729Z,3.58
2022-09-04T04:39:39.319Z,3.53
2022-09-04T04:42:20.507Z,3.80
2022-09-04T04:45:21.349Z,3.38
2022-09-04T04:48:24.951Z,3.60
2022-09-04T04:51:05.298Z,3.72
2022-09-04T04:53:41.801Z,3.55
2022-09-04T04:56:19.219Z,3.30
2022-09-04T04:59:02.960Z,3.45
2022-09-04T05:01:43.606Z,4.43
2022-09-04T05:04:18.596Z,3.83
2022-09-04T05:06:53.894Z,3.67
2022-09-04T05:09:31.718Z,4.40
2022-09-04T05:12:10.488Z,4.70
2022-09-04T05:14:48.406Z,4.68
2022-09-04T05:17:24.506Z,4.50
2022-09-04T05:20:00.182Z,4.68
2022-09-04T05:22:38.487Z,4.70
2022-09-04T05:25:11.531Z,4.75
2022-09-04T05:27:58.318Z,4.82
2022-09-04T05:30:37.114Z,4.80
2022-09-04T05:33:13.717Z,4.47
2022-09-04T05:35:52.966Z,4.50
2022-09-04T05:38:27.379Z,3.90
2022-09-04T05:41:07.412Z,3.22
2022-09-04T05:43:51.135Z,3.42
2022-09-04T05:46:31.859Z,3.15
2022-09-04T05:49:04.109Z,3.00
2022-09-04T05:51:56.502Z,2.97
2022-09-04T05:57:13.214Z,3.13
2022-09-04T05:59:59.445Z,2.75
2022-09-04T06:02:59.833Z,3.17
2022-09-04T06:05:38.451Z,3.70
2022-09-04T06:08:23.136Z,3.33
2022-09-04T06:11:05.169Z,3.33
2022-09-04T06:14:08.093Z,3.00
2022-09-04T06:17:05.732Z,3.40
2022-09-04T06:19:54.224Z,3.40
2022-09-04T06:23:02.362Z,3.53
2022-09-04T06:26:13.142Z,3.60
2022-09-04T06:28:56.273Z,3.72
2022-09-04T06:32:04.243Z,3.15
2022-09-04T06:34:59.234Z,3.33
2022-09-04T06:37:38.441Z,3.28
2022-09-04T06:40:21.788Z,3.33
2022-09-04T06:43:03.714Z,3.42
2022-09-04T06:45:44.534Z,2.88
2022-09-04T06:48:23.266Z,3.38
2022-09-04T06:51:05.247Z,3.47
2022-09-04T06:53:42.787Z,3.03
2022-09-04T06:56:29.552Z,3.00
2022-09-04T06:59:27.744Z,2.80
2022-09-04T07:02:05.169Z,2.85
2022-09-04T07:04:44.966Z,3.15
2022-09-04T07:07:23.637Z,3.28
2022-09-04T07:10:01.323Z,2.83
2022-09-04T07:13:10.868Z,2.75
2022-09-04T07:16:04.919Z,2.55
2022-09-04T07:18:52.196Z,2.70
2022-09-04T07:21:28.602Z,2.72
2022-09-04T07:24:05.147Z,2.38
2022-09-04T07:26:38.902Z,2.25
2022-09-04T07:29:27.939Z,2.20
2022-09-04T07:32:02.664Z,2.30
2022-09-04T07:34:41.509Z,1.60
2022-09-04T07:37:27.152Z,2.28
2022-09-04T07:40:08.121Z,2.00
2022-09-04T07:42:42.700Z,4.03
2022-09-04T07:45:22.327Z,2.00
2022-09-04T07:47:59.537Z,2.85
2022-09-04T07:50:33.050Z,2.10
2022-09-04T07:53:25.676Z,2.58
2022-09-04T07:56:00.776Z,2.15
2022-09-04T07:58:50.442Z,2.25
2022-09-04T08:01:40.390Z,2.20
2022-09-04T08:04:29.618Z,2.22
2022-09-04T08:07:00.003Z,2.45
2022-09-04T08:09:50.925Z,4.93
2022-09-04T08:12:44.832Z,2.10
2022-09-04T08:15:19.869Z,2.60
2022-09-04T08:18:02.019Z,1.98
2022-09-04T08:20:44.095Z,1.70
2022-09-04T08:26:00.749Z,2.25
2022-09-04T08:28:46.606Z,1.52
2022-09-04T08:31:22.319Z,1.80
2022-09-04T08:34:30.168Z,1.75
2022-09-04T08:37:07.892Z,1.77
2022-09-04T08:39:46.431Z,1.60
2022-09-04T08:42:55.945Z,1.75
2022-09-04T08:45:58.876Z,1.80
2022-09-04T08:49:17.808Z,1.70
2022-09-04T08:52:20.452Z,1.98
2022-09-04T08:55:25.224Z,1.88
2022-09-04T08:58:17.300Z,2.40
2022-09-04T09:03:46.601Z,2.00
2022-09-04T09:07:00.514Z,2.10
2022-09-04T09:10:10.453Z,1.77
2022-09-04T09:13:11.413Z,1.80
2022-09-04T09:15:57.988Z,1.65
2022-09-04T09:18:40.551Z,1.70
2022-09-04T09:21:13.661Z,1.67
2022-09-04T09:24:06.531Z,2.17
2022-09-04T09:26:39.059Z,2.08
2022-09-04T09:29:46.706Z,2.53
2022-09-04T09:32:55.967Z,1.98
2022-09-04T09:36:12.156Z,1.90
2022-09-04T09:39:09.704Z,2.22
2022-09-04T09:42:15.052Z,1.63
2022-09-04T09:45:13.290Z,1.80
2022-09-04T09:48:19.689Z,1.75
2022-09-04T09:51:14.426Z,2.00
2022-09-04T09:54:19.513Z,1.85
2022-09-04T09:57:33.387Z,2.72
2022-09-04T10:00:13.458Z,2.20
2022-09-04T10:03:14.771Z,1.98
2022-09-04T10:06:17.532Z,2.70
2022-09-04T10:09:13.059Z,2.00
2022-09-04T10:12:34.588Z,2.10
2022-09-04T10:15:30.420Z,1.97
2022-09-04T10:18:33.778Z,1.80
2022-09-04T10:21:34.124Z,2.15
2022-09-04T10:24:37.770Z,1.90
2022-09-04T10:27:32.200Z,1.98
2022-09-04T10:30:10.110Z,2.90
2022-09-04T10:33:16.553Z,2.05
2022-09-04T10:35:57.588Z,2.13
2022-09-04T10:38:38.484Z,2.20
2022-09-04T10:41:35.653Z,1.93
2022-09-04T10:44:31.844Z,2.20
2022-09-04T10:47:09.013Z,1.73
2022-09-04T10:50:08.367Z,3.10
2022-09-04T10:53:08.179Z,2.03
2022-09-04T10:55:55.197Z,2.03
2022-09-04T10:58:38.352Z,2.00
2022-09-04T11:01:35.080Z,2.00
2022-09-04T11:04:40.222Z,2.15
2022-09-04T11:07:55.766Z,2.05
2022-09-04T11:10:39.568Z,1.60
2022-09-04T11:13:46.084Z,1.80
2022-09-04T11:16:36.028Z,2.60
2022-09-04T11:19:51.990Z,1.80
2022-09-04T11:23:01.108Z,2.03
2022-09-04T11:26:02.898Z,2.35
2022-09-04T11:28:57.095Z,2.22
2022-09-04T11:31:39.887Z,1.73
2022-09-04T11:35:06.803Z,1.90
2022-09-04T11:38:09.032Z,1.98
2022-09-04T11:41:29.042Z,1.60
2022-09-04T11:44:15.026Z,3.08
2022-09-04T11:47:29.127Z,2.83
2022-09-04T11:50:08.315Z,1.80
2022-09-04T11:52:59.674Z,1.70
2022-09-04T11:55:52.908Z,1.60
2022-09-04T11:58:40.261Z,1.40
2022-09-04T12:01:24.933Z,1.63
2022-09-04T12:04:20.386Z,1.52
2022-09-04T12:07:02.461Z,1.70
2022-09-04T12:09:55.791Z,1.40
2022-09-04T12:12:49.768Z,1.40
2022-09-04T12:15:56.657Z,1.58
2022-09-04T12:19:08.497Z,1.30
2022-09-04T12:22:05.091Z,1.90
2022-09-04T12:24:59.657Z,1.52
2022-09-04T12:27:46.816Z,2.10
2022-09-04T12:30:21.181Z,1.90
2022-09-04T12:33:19.855Z,1.77
2022-09-04T12:36:25.383Z,1.52
2022-09-04T12:39:26.715Z,1.63
2022-09-04T12:42:02.654Z,1.70
2022-09-04T12:44:44.237Z,1.63
2022-09-04T12:47:28.424Z,1.90
2022-09-04T12:50:12.153Z,1.80
2022-09-04T12:52:58.345Z,1.70
2022-09-04T12:55:36.216Z,1.63
2022-09-04T12:58:14.247Z,1.33
2022-09-04T13:00:55.385Z,1.77
2022-09-04T13:03:37.469Z,1.58
2022-09-04T13:06:21.756Z,1.77
2022-09-04T13:09:04.134Z,1.48
2022-09-04T13:11:47.577Z,1.65
2022-09-04T13:14:34.092Z,2.03
2022-09-04T13:17:09.753Z,2.00
2022-09-04T13:19:47.254Z,1.70
2022-09-04T13:22:28.839Z,1.40
2022-09-04T13:25:06.706Z,1.75
2022-09-04T13:27:48.249Z,1.70
2022-09-04T13:30:22.124Z,1.77
2022-09-04T13:33:16.589Z,1.23
2022-09-04T13:35:59.262Z,1.50
2022-09-04T13:39:11.233Z,1.38
2022-09-04T13:41:55.808Z,1.42
2022-09-04T13:44:59.987Z,1.45
2022-09-04T13:47:36.530Z,2.10
2022-09-04T13:50:14.108Z,1.50
2022-09-04T13:52:46.898Z,1.30
2022-09-04T13:55:22.371Z,1.60
2022-09-04T13:57:58.343Z,1.33
2022-09-04T14:00:27.602Z,4.55
2022-09-04T14:03:01.845Z,1.20
2022-09-04T14:05:33.178Z,1.63
2022-09-04T14:08:03.968Z,1.60
2022-09-04T14:10:55.761Z,1.65
2022-09-04T14:13:41.719Z,1.75
2022-09-04T14:16:11.712Z,1.50
2022-09-04T14:19:12.386Z,1.70
2022-09-04T14:22:00.416Z,1.60
2022-09-04T14:24:33.942Z,1.73
2022-09-04T14:27:15.033Z,1.70
2022-09-04T14:29:55.385Z,1.52
2022-09-04T14:32:32.471Z,1.90
2022-09-04T14:35:10.343Z,1.88
2022-09-04T14:38:04.485Z,1.70
2022-09-04T14:40:34.927Z,1.90
2022-09-04T14:43:13.585Z,1.80
2022-09-04T14:46:07.137Z,1.90
2022-09-04T14:48:40.705Z,1.60
2022-09-04T14:51:17.169Z,2.28
2022-09-04T14:53:50.679Z,1.80
2022-09-04T14:56:32.708Z,2.38
2022-09-04T14:59:10.889Z,2.25
2022-09-04T15:01:55.424Z,2.28
2022-09-04T15:04:26.536Z,2.38
2022-09-04T15:07:11.366Z,3.17
2022-09-04T15:09:43.898Z,2.72
2022-09-04T15:12:24.580Z,2.33
2022-09-04T15:15:05.299Z,2.08
2022-09-04T15:17:36.196Z,1.95
2022-09-04T15:20:09.083Z,2.17
2022-09-04T15:22:43.770Z,2.08
2022-09-04T15:25:57.311Z,2.33
2022-09-04T15:28:28.786Z,2.40
2022-09-04T15:31:15.481Z,2.00
2022-09-04T15:33:46.730Z,2.20
2022-09-04T15:36:20.204Z,2.00
2022-09-04T15:38:52.029Z,1.92
2022-09-04T15:41:28.035Z,2.13
2022-09-04T15:44:01.756Z,2.00
2022-09-04T15:46:42.868Z,2.25
2022-09-04T15:49:27.462Z,1.75
2022-09-04T15:52:03.533Z,1.85
2022-09-04T15:54:52.136Z,2.92
2022-09-04T15:57:27.805Z,2.90
2022-09-04T16:00:02.455Z,2.70
2022-09-04T16:02:39.775Z,1.58
2022-09-04T16:05:20.594Z,1.65
2022-09-04T16:08:03.762Z,1.67
2022-09-04T16:10:45.454Z,1.70
2022-09-04T16:16:08.268Z,1.50
2022-09-04T16:18:50.467Z,2.15
2022-09-04T16:21:29.164Z,1.83
2022-09-04T16:24:07.249Z,1.95
2022-09-04T16:26:35.039Z,1.88
2022-09-04T16:29:06.385Z,1.83
2022-09-04T16:31:35.942Z,2.22
2022-09-04T16:34:13.755Z,2.58
2022-09-04T16:36:45.932Z,1.95
2022-09-04T16:39:25.809Z,2.33
2022-09-04T16:41:59.638Z,2.00
2022-09-04T16:44:31.926Z,2.22
2022-09-04T16:47:07.875Z,2.15
2022-09-04T16:49:47.064Z,2.20
2022-09-04T16:52:31.959Z,1.92
2022-09-04T16:55:10.006Z,2.03
2022-09-04T16:57:44.170Z,2.38
2022-09-04T17:00:14.643Z,2.28
2022-09-04T17:02:49.185Z,2.13
2022-09-04T17:05:28.490Z,1.90
2022-09-04T17:08:02.924Z,2.40
2022-09-04T17:10:41.420Z,2.40
2022-09-04T17:13:17.747Z,2.20
2022-09-04T17:15:54.831Z,2.20
2022-09-04T17:18:25.497Z,2.17
2022-09-04T17:26:39.798Z,2.33
2022-09-04T17:28:58.183Z,2.40
2022-09-04T17:29:07.927Z,2.28
2022-09-04T17:29:48.070Z,2.50
2022-09-04T17:34:14.653Z,2.10
2022-09-04T17:40:39.131Z,2.22
2022-09-04T17:40:40.957Z,2.63
2022-09-04T17:41:40.285Z,2.45
2022-09-04T17:44:29.256Z,2.42
2022-09-04T17:47:12.464Z,2.10
2022-09-04T17:49:45.976Z,2.40
2022-09-04T17:52:23.550Z,2.58
2022-09-04T17:54:52.984Z,2.53
2022-09-04T17:57:26.353Z,2.72
2022-09-04T18:00:01.142Z,2.25
2022-09-04T18:02:35.708Z,2.60
2022-09-04T18:05:15.840Z,2.72
2022-09-04T18:08:07.956Z,2.38
2022-09-04T18:10:51.874Z,2.50
2022-09-04T18:13:37.499Z,2.03
2022-09-04T18:16:50.378Z,2.88
2022-09-04T18:19:38.356Z,2.40
2022-09-04T18:22:26.541Z,2.55
2022-09-04T18:25:16.260Z,2.30
2022-09-04T18:28:11.452Z,2.70
2022-09-04T18:37:07.100Z,3.90
2022-09-04T18:37:07.402Z,2.25
2022-09-04T18:37:25.133Z,2.08
2022-09-04T18:39:50.281Z,2.65
2022-09-04T18:50:32.524Z,2.47
2022-09-04T18:50:36.798Z,2.60
2022-09-04T18:53:54.119Z,2.67
2022-09-04T18:56:27.653Z,2.45
2022-09-04T18:59:03.151Z,2.85
2022-09-04T19:01:41.994Z,2.72
2022-09-04T19:04:38.769Z,2.63
2022-09-04T19:07:10.848Z,2.70
2022-09-04T19:12:35.699Z,2.95
2022-09-04T19:15:36.738Z,2.60
2022-09-04T19:18:17.391Z,2.88
2022-09-04T19:20:49.132Z,2.70
2022-09-04T19:23:29.111Z,2.95
2022-09-04T19:26:03.052Z,2.60
2022-09-04T19:28:53.021Z,2.60
2022-09-04T19:31:31.039Z,2.65
2022-09-04T19:34:09.653Z,2.42
2022-09-04T19:36:43.826Z,3.15
2022-09-04T19:45:55.003Z,2.72
2022-09-04T19:46:00.253Z,2.65
2022-09-04T19:46:18.034Z,2.63
2022-09-04T19:48:20.678Z,2.95
2022-09-04T19:53:23.099Z,3.17
2022-09-04T19:53:57.470Z,2.58
2022-09-04T19:56:31.496Z,2.90
2022-09-04T19:59:06.375Z,3.08
2022-09-04T20:01:47.204Z,2.72
2022-09-04T20:04:25.495Z,2.88
2022-09-04T20:06:59.453Z,3.00
2022-09-04T20:09:33.969Z,3.00
2022-09-04T20:12:11.680Z,3.03
2022-09-04T20:14:46.537Z,3.17
2022-09-04T20:17:35.774Z,2.85
2022-09-04T20:20:13.815Z,2.90
2022-09-04T20:22:49.454Z,3.13
2022-09-04T20:25:32.229Z,2.97
2022-09-04T20:28:15.232Z,3.10
2022-09-04T20:30:49.453Z,3.22
2022-09-04T20:33:22.549Z,3.28
2022-09-04T20:35:59.662Z,3.25
2022-09-04T20:38:37.546Z,2.80
2022-09-04T20:41:13.651Z,2.90
2022-09-04T20:43:56.104Z,5.13
2022-09-04T20:52:43.353Z,3.90
2022-09-04T20:52:43.579Z,4.47
2022-09-04T20:52:56.060Z,3.00
2022-09-04T20:55:26.468Z,2.80
2022-09-04T21:03:12.254Z,2.85
2022-09-04T21:03:21.099Z,3.53
2022-09-04T21:04:34.891Z,3.17
2022-09-04T21:07:22.430Z,3.30
2022-09-04T21:09:59.658Z,2.90
2022-09-04T21:12:36.116Z,3.00
2022-09-04T21:15:11.605Z,3.65
2022-09-04T21:17:55.886Z,3.00
2022-09-04T21:21:00.048Z,3.03
2022-09-04T21:24:03.404Z,3.30
2022-09-04T21:26:50.861Z,3.20
2022-09-04T21:29:33.460Z,3.33
2022-09-04T21:32:36.135Z,3.38
2022-09-04T21:37:46.841Z,2.95
2022-09-04T21:40:52.760Z,3.00
2022-09-04T21:43:48.338Z,3.25
2022-09-04T21:46:32.850Z,3.08
2022-09-04T21:49:24.373Z,3.13
2022-09-04T21:52:18.259Z,3.25
2022-09-04T21:58:10.085Z,3.08
2022-09-04T22:02:26.361Z,3.10
2022-09-04T22:02:42.619Z,3.20
2022-09-04T22:04:26.441Z,3.25
2022-09-04T22:08:34.600Z,3.00
2022-09-04T22:13:32.891Z,2.85
2022-09-04T22:13:37.502Z,2.97
2022-09-04T22:16:17.238Z,3.30
2022-09-04T22:19:16.327Z,2.67
2022-09-04T22:22:03.715Z,3.13
2022-09-04T22:24:53.059Z,3.45
2022-09-04T22:28:08.522Z,3.28
2022-09-04T22:30:43.237Z,3.80
2022-09-04T22:33:29.383Z,3.70
2022-09-04T22:37:00.440Z,3.78
2022-09-04T22:40:05.197Z,4.10
2022-09-04T22:42:42.828Z,3.53
2022-09-04T22:45:39.909Z,3.85
2022-09-04T22:48:40.917Z,3.78
2022-09-04T22:51:30.527Z,4.50
2022-09-04T22:54:17.151Z,4.03
2022-09-04T22:56:54.299Z,4.32
2022-09-04T22:59:54.590Z,3.83
2022-09-04T23:03:09.860Z,4.13
2022-09-04T23:06:24.862Z,4.68
2022-09-04T23:13:52.402Z,4.60
2022-09-04T23:13:56.901Z,3.90
2022-09-04T23:15:30.329Z,4.57
2022-09-04T23:20:23.793Z,3.85
2022-09-04T23:26:50.538Z,3.55
2022-09-04T23:26:53.813Z,3.80
2022-09-04T23:27:50.374Z,3.85
2022-09-04T23:30:25.670Z,4.15
2022-09-04T23:33:33.656Z,4.38
2022-09-04T23:36:29.682Z,4.03
2022-09-04T23:39:36.356Z,4.20
2022-09-04T23:42:25.605Z,4.30
2022-09-04T23:45:14.501Z,3.97
2022-09-04T23:48:19.129Z,4.40
2022-09-04T23:50:55.443Z,4.32
2022-09-04T23:53:32.493Z,4.68
2022-09-04T23:56:17.238Z,3.85
2022-09-04T23:59:31.888Z,3.95
